createdAt,value
2018-01-06T00:00:05.686Z,992.4
2018-01-06T00:01:08.174Z,992.4
2018-01-06T00:02:10.686Z,992.4
2018-01-06T00:03:13.180Z,992.4
2018-01-06T00:04:15.674Z,992.4
2018-01-06T00:05:18.176Z,992.5
2018-01-06T00:06:20.984Z,992.4
2018-01-06T00:07:23.768Z,992.5
2018-01-06T00:08:26.264Z,992.5
2018-01-06T00:09:28.759Z,992.4
2018-01-06T00:10:31.575Z,992.5
2018-01-06T00:11:34.046Z,992.5
2018-01-06T00:12:36.527Z,992.6
2018-01-06T00:13:39.039Z,992.5
2018-01-06T00:14:41.538Z,992.5
2018-01-06T00:15:44.031Z,992.5
2018-01-06T00:16:46.528Z,992.5
2018-01-06T00:17:49.311Z,992.5
2018-01-06T00:18:52.111Z,992.5
2018-01-06T00:19:54.616Z,992.5
2018-01-06T00:20:57.110Z,992.5
2018-01-06T00:21:59.900Z,992.5
2018-01-06T00:23:02.384Z,992.5
2018-01-06T00:24:04.880Z,992.6
2018-01-06T00:25:07.666Z,992.6
2018-01-06T00:26:10.174Z,992.7
2018-01-06T00:27:12.654Z,992.6
2018-01-06T00:28:15.159Z,992.7
2018-01-06T00:29:17.650Z,992.6
2018-01-06T00:30:20.437Z,992.7
2018-01-06T00:31:22.935Z,992.7
2018-01-06T00:32:25.730Z,992.7
2018-01-06T00:33:28.215Z,992.7
2018-01-06T00:34:31.011Z,992.7
2018-01-06T00:35:33.790Z,992.7
2018-01-06T00:36:36.583Z,992.8
2018-01-06T00:37:39.077Z,992.8
2018-01-06T00:38:41.577Z,992.8
2018-01-06T00:39:44.062Z,992.9
2018-01-06T00:40:46.567Z,992.9
2018-01-06T00:41:49.058Z,993
2018-01-06T00:42:51.544Z,992.9
2018-01-06T00:43:54.039Z,993
2018-01-06T00:44:56.530Z,993
2018-01-06T00:45:59.022Z,993
2018-01-06T00:47:01.536Z,993
2018-01-06T00:48:04.029Z,993
2018-01-06T00:49:06.524Z,993
2018-01-06T00:50:09.013Z,993.1
2018-01-06T00:51:11.504Z,993.1
2018-01-06T00:52:13.982Z,993.1
2018-01-06T00:53:16.477Z,993.1
2018-01-06T00:54:18.977Z,993
2018-01-06T00:55:21.821Z,993.1
2018-01-06T00:56:24.330Z,993.1
2018-01-06T00:57:26.820Z,993.1
2018-01-06T00:58:29.323Z,993
2018-01-06T00:59:31.835Z,993
2018-01-06T01:00:34.619Z,993.1
2018-01-06T01:01:37.106Z,993
2018-01-06T01:02:39.601Z,993
2018-01-06T01:03:42.099Z,993
2018-01-06T01:04:44.590Z,993
2018-01-06T01:05:47.090Z,993.1
2018-01-06T01:06:49.580Z,993.1
2018-01-06T01:07:52.068Z,993.1
2018-01-06T01:08:54.571Z,993.2
2018-01-06T01:09:57.064Z,993.2
2018-01-06T01:10:59.548Z,993.2
2018-01-06T01:12:02.047Z,993.2
2018-01-06T01:13:04.549Z,993.2
2018-01-06T01:14:07.039Z,993.2
2018-01-06T01:15:09.536Z,993.2
2018-01-06T01:16:12.034Z,993.2
2018-01-06T01:17:14.814Z,993.3
2018-01-06T01:18:17.325Z,993.2
2018-01-06T01:19:19.808Z,993.2
2018-01-06T01:20:22.308Z,993.3
2018-01-06T01:21:24.800Z,993.3
2018-01-06T01:22:27.293Z,993.2
2018-01-06T01:23:29.780Z,993.3
2018-01-06T01:24:32.282Z,993.3
2018-01-06T01:25:34.778Z,993.3
2018-01-06T01:26:37.269Z,993.3
2018-01-06T01:27:39.768Z,993.4
2018-01-06T01:28:42.264Z,993.4
2018-01-06T01:29:44.756Z,993.4
2018-01-06T01:30:47.254Z,993.4
2018-01-06T01:31:49.749Z,993.4
2018-01-06T01:32:52.534Z,993.4
2018-01-06T01:33:55.036Z,993.4
2018-01-06T01:34:57.516Z,993.4
2018-01-06T01:36:00.301Z,993.4
2018-01-06T01:37:02.806Z,993.4
2018-01-06T01:38:05.298Z,993.5
2018-01-06T01:39:07.802Z,993.5
2018-01-06T01:40:10.303Z,993.5
2018-01-06T01:41:12.797Z,993.5
2018-01-06T01:42:15.299Z,993.5
2018-01-06T01:43:17.800Z,993.5
2018-01-06T01:44:20.277Z,993.5
2018-01-06T01:45:22.774Z,993.6
2018-01-06T01:46:25.556Z,993.6
2018-01-06T01:47:28.052Z,993.6
2018-01-06T01:48:30.537Z,993.6
2018-01-06T01:49:33.052Z,993.6
2018-01-06T01:50:35.838Z,993.6
2018-01-06T01:51:38.316Z,993.6
2018-01-06T01:52:40.818Z,993.7
2018-01-06T01:53:43.603Z,993.7
2018-01-06T01:54:46.102Z,993.7
2018-01-06T01:55:48.590Z,993.7
2018-01-06T01:56:51.072Z,993.7
2018-01-06T01:57:53.857Z,993.8
2018-01-06T01:58:56.368Z,993.8
2018-01-06T01:59:58.848Z,993.8
2018-01-06T02:01:01.650Z,993.9
2018-01-06T02:02:04.202Z,993.9
2018-01-06T02:03:06.710Z,993.9
2018-01-06T02:04:09.204Z,993.9
2018-01-06T02:05:11.692Z,993.9
2018-01-06T02:06:14.183Z,993.9
2018-01-06T02:07:16.684Z,993.9
2018-01-06T02:08:19.173Z,994
2018-01-06T02:09:21.673Z,994
2018-01-06T02:10:24.471Z,994
2018-01-06T02:11:27.260Z,994
2018-01-06T02:12:29.756Z,994
2018-01-06T02:13:32.250Z,994.1
2018-01-06T02:14:34.742Z,994.1
2018-01-06T02:15:37.231Z,994.1
2018-01-06T02:16:39.716Z,994.1
2018-01-06T02:17:42.523Z,994.1
2018-01-06T02:18:45.017Z,994.1
2018-01-06T02:19:47.508Z,994.1
2018-01-06T02:20:50.006Z,994.2
2018-01-06T02:21:52.502Z,994.1
2018-01-06T02:22:54.994Z,994.1
2018-01-06T02:23:57.488Z,994.1
2018-01-06T02:24:59.989Z,994.1
2018-01-06T02:26:02.474Z,994.1
2018-01-06T02:27:04.982Z,994.1
2018-01-06T02:28:07.475Z,994.1
2018-01-06T02:29:09.966Z,994.1
2018-01-06T02:30:12.776Z,994.1
2018-01-06T02:31:15.267Z,994.1
2018-01-06T02:32:18.065Z,994.1
2018-01-06T02:33:20.857Z,994.1
2018-01-06T02:34:23.342Z,994.1
2018-01-06T02:35:25.835Z,994.1
2018-01-06T02:36:28.332Z,994.1
2018-01-06T02:37:30.818Z,994
2018-01-06T02:38:33.307Z,994
2018-01-06T02:39:36.096Z,994.1
2018-01-06T02:40:38.589Z,994.1
2018-01-06T02:41:41.388Z,994.1
2018-01-06T02:42:43.881Z,994.1
2018-01-06T02:43:46.664Z,994.1
2018-01-06T02:44:49.158Z,994.2
2018-01-06T02:45:51.653Z,994.2
2018-01-06T02:46:54.463Z,994.2
2018-01-06T02:47:56.943Z,994.2
2018-01-06T02:48:59.446Z,994.2
2018-01-06T02:50:01.953Z,994.3
2018-01-06T02:51:04.715Z,994.3
2018-01-06T02:52:07.218Z,994.3
2018-01-06T02:53:09.708Z,994.3
2018-01-06T02:54:12.207Z,994.3
2018-01-06T02:55:14.706Z,994.3
2018-01-06T02:56:17.192Z,994.4
2018-01-06T02:57:19.986Z,994.4
2018-01-06T02:58:22.492Z,994.4
2018-01-06T02:59:25.274Z,994.5
2018-01-06T03:00:28.055Z,994.4
2018-01-06T03:01:30.548Z,994.4
2018-01-06T03:02:33.038Z,994.3
2018-01-06T03:03:35.826Z,994.4
2018-01-06T03:04:38.319Z,994.4
2018-01-06T03:05:40.806Z,994.4
2018-01-06T03:06:43.313Z,994.4
2018-01-06T03:07:45.801Z,994.4
2018-01-06T03:08:48.297Z,994.4
2018-01-06T03:09:50.788Z,994.4
2018-01-06T03:10:53.282Z,994.4
2018-01-06T03:11:56.061Z,994.5
2018-01-06T03:12:58.576Z,994.4
2018-01-06T03:14:01.073Z,994.5
2018-01-06T03:15:03.565Z,994.5
2018-01-06T03:16:06.372Z,994.4
2018-01-06T03:17:09.156Z,994.4
2018-01-06T03:18:11.671Z,994.5
2018-01-06T03:19:14.462Z,994.5
2018-01-06T03:20:16.952Z,994.6
2018-01-06T03:21:19.449Z,994.6
2018-01-06T03:22:22.216Z,994.6
2018-01-06T03:23:24.705Z,994.7
2018-01-06T03:24:27.222Z,994.7
2018-01-06T03:25:29.702Z,994.6
2018-01-06T03:26:32.204Z,994.7
2018-01-06T03:27:34.697Z,994.7
2018-01-06T03:28:37.198Z,994.6
2018-01-06T03:29:39.985Z,994.6
2018-01-06T03:30:42.526Z,994.6
2018-01-06T03:31:44.965Z,994.6
2018-01-06T03:32:47.744Z,994.6
2018-01-06T03:33:50.233Z,994.7
2018-01-06T03:34:52.729Z,994.7
2018-01-06T03:35:55.229Z,994.7
2018-01-06T03:36:57.713Z,994.6
2018-01-06T03:38:00.773Z,994.6
2018-01-06T03:39:03.276Z,994.7
2018-01-06T03:40:05.765Z,994.7
2018-01-06T03:41:08.262Z,994.7
2018-01-06T03:42:11.096Z,994.7
2018-01-06T03:43:13.596Z,994.7
2018-01-06T03:44:16.092Z,994.6
2018-01-06T03:45:18.591Z,994.6
2018-01-06T03:46:21.068Z,994.6
2018-01-06T03:47:23.574Z,994.6
2018-01-06T03:48:26.358Z,994.6
2018-01-06T03:49:28.862Z,994.6
2018-01-06T03:50:31.638Z,994.5
2018-01-06T03:51:34.426Z,994.5
2018-01-06T03:52:36.916Z,994.6
2018-01-06T03:53:39.413Z,994.6
2018-01-06T03:54:41.904Z,994.6
2018-01-06T03:55:44.402Z,994.6
2018-01-06T03:56:46.888Z,994.6
2018-01-06T03:57:49.388Z,994.7
2018-01-06T03:58:51.882Z,994.7
2018-01-06T03:59:54.959Z,994.6
2018-01-06T04:00:57.752Z,994.6
2018-01-06T04:02:00.533Z,994.6
2018-01-06T04:03:03.620Z,994.6
2018-01-06T04:04:06.125Z,994.6
2018-01-06T04:05:08.611Z,994.6
2018-01-06T04:06:11.112Z,994.6
2018-01-06T04:07:14.187Z,994.6
2018-01-06T04:08:16.672Z,994.6
2018-01-06T04:09:19.161Z,994.6
2018-01-06T04:10:21.662Z,994.6
2018-01-06T04:11:24.427Z,994.6
2018-01-06T04:12:26.944Z,994.6
2018-01-06T04:13:29.435Z,994.6
2018-01-06T04:14:31.922Z,994.6
2018-01-06T04:15:34.418Z,994.6
2018-01-06T04:16:36.905Z,994.6
2018-01-06T04:17:39.404Z,994.7
2018-01-06T04:18:41.893Z,994.7
2018-01-06T04:19:44.671Z,994.7
2018-01-06T04:20:47.168Z,994.7
2018-01-06T04:21:49.652Z,994.8
2018-01-06T04:22:52.162Z,994.7
2018-01-06T04:23:54.931Z,994.7
2018-01-06T04:24:57.430Z,994.7
2018-01-06T04:25:59.925Z,994.7
2018-01-06T04:27:02.419Z,994.7
2018-01-06T04:28:04.913Z,994.7
2018-01-06T04:29:07.709Z,994.8
2018-01-06T04:30:10.192Z,994.8
2018-01-06T04:31:12.999Z,994.8
2018-01-06T04:32:15.489Z,994.8
2018-01-06T04:33:17.975Z,994.8
2018-01-06T04:34:20.466Z,994.8
2018-01-06T04:35:22.963Z,994.8
2018-01-06T04:36:25.455Z,994.7
2018-01-06T04:37:27.953Z,994.8
2018-01-06T04:38:30.433Z,994.8
2018-01-06T04:39:32.931Z,994.9
2018-01-06T04:40:35.418Z,994.9
2018-01-06T04:41:37.914Z,994.9
2018-01-06T04:42:40.408Z,994.9
2018-01-06T04:43:43.182Z,994.9
2018-01-06T04:44:45.666Z,994.9
2018-01-06T04:45:48.163Z,994.9
2018-01-06T04:46:50.655Z,994.9
2018-01-06T04:47:53.136Z,994.9
2018-01-06T04:48:55.629Z,995
2018-01-06T04:49:58.129Z,995
2018-01-06T04:51:00.922Z,995
2018-01-06T04:52:03.416Z,995
2018-01-06T04:53:05.907Z,995
2018-01-06T04:54:08.396Z,995
2018-01-06T04:55:10.905Z,995
2018-01-06T04:56:13.399Z,995
2018-01-06T04:57:15.877Z,995.1
2018-01-06T04:58:18.670Z,995.1
2018-01-06T04:59:21.159Z,995.1
2018-01-06T05:00:23.655Z,995.2
2018-01-06T05:01:26.157Z,995.2
2018-01-06T05:02:28.631Z,995.2
2018-01-06T05:03:31.125Z,995.2
2018-01-06T05:04:33.621Z,995.2
2018-01-06T05:05:36.405Z,995.3
2018-01-06T05:06:38.905Z,995.3
2018-01-06T05:07:41.396Z,995.4
2018-01-06T05:08:43.886Z,995.4
2018-01-06T05:09:46.434Z,995.5
2018-01-06T05:10:49.165Z,995.5
2018-01-06T05:11:51.653Z,995.5
2018-01-06T05:12:54.434Z,995.5
2018-01-06T05:13:56.967Z,995.5
2018-01-06T05:14:59.811Z,995.5
2018-01-06T05:16:02.298Z,995.6
2018-01-06T05:17:04.795Z,995.6
2018-01-06T05:18:07.867Z,995.6
2018-01-06T05:19:10.350Z,995.6
2018-01-06T05:20:12.839Z,995.6
2018-01-06T05:21:15.344Z,995.7
2018-01-06T05:22:17.836Z,995.7
2018-01-06T05:23:20.329Z,995.6
2018-01-06T05:24:22.868Z,995.6
2018-01-06T05:25:25.517Z,995.6
2018-01-06T05:26:28.011Z,995.6
2018-01-06T05:27:30.509Z,995.6
2018-01-06T05:28:32.985Z,995.7
2018-01-06T05:29:35.765Z,995.6
2018-01-06T05:30:38.585Z,995.7
2018-01-06T05:31:41.072Z,995.7
2018-01-06T05:32:43.568Z,995.7
2018-01-06T05:33:46.361Z,995.7
2018-01-06T05:34:48.849Z,995.7
2018-01-06T05:35:51.359Z,995.8
2018-01-06T05:36:53.855Z,995.8
2018-01-06T05:37:56.345Z,995.8
2018-01-06T05:38:58.839Z,995.7
2018-01-06T05:40:01.336Z,995.8
2018-01-06T05:41:03.835Z,995.8
2018-01-06T05:42:06.323Z,995.8
2018-01-06T05:43:09.147Z,995.8
2018-01-06T05:44:11.642Z,995.8
2018-01-06T05:45:14.431Z,995.8
2018-01-06T05:46:16.930Z,995.8
2018-01-06T05:47:19.449Z,995.8
2018-01-06T05:48:21.898Z,995.8
2018-01-06T05:49:24.398Z,995.8
2018-01-06T05:50:27.175Z,995.8
2018-01-06T05:51:29.956Z,995.8
2018-01-06T05:52:32.458Z,995.8
2018-01-06T05:53:34.936Z,995.7
2018-01-06T05:54:37.452Z,995.7
2018-01-06T05:55:39.947Z,995.6
2018-01-06T05:56:42.453Z,995.7
2018-01-06T05:57:44.939Z,995.6
2018-01-06T05:58:47.430Z,995.7
2018-01-06T05:59:49.922Z,995.7
2018-01-06T06:00:52.430Z,995.8
2018-01-06T06:01:55.196Z,995.9
2018-01-06T06:02:57.692Z,995.9
2018-01-06T06:04:00.189Z,995.9
2018-01-06T06:05:02.685Z,996
2018-01-06T06:06:05.178Z,996
2018-01-06T06:07:07.681Z,996
2018-01-06T06:08:10.161Z,995.9
2018-01-06T06:09:12.669Z,995.9
2018-01-06T06:10:15.152Z,995.9
2018-01-06T06:11:18.331Z,995.9
2018-01-06T06:12:20.819Z,996
2018-01-06T06:13:23.317Z,996
2018-01-06T06:14:26.096Z,996.1
2018-01-06T06:15:28.588Z,996.1
2018-01-06T06:16:31.098Z,996.2
2018-01-06T06:17:33.581Z,996.2
2018-01-06T06:18:36.079Z,996.2
2018-01-06T06:19:38.569Z,996.3
2018-01-06T06:20:41.065Z,996.3
2018-01-06T06:21:43.559Z,996.3
2018-01-06T06:22:46.058Z,996.3
2018-01-06T06:23:48.542Z,996.3
2018-01-06T06:24:51.041Z,996.3
2018-01-06T06:25:53.540Z,996.3
2018-01-06T06:26:56.034Z,996.3
2018-01-06T06:27:58.516Z,996.3
2018-01-06T06:29:01.015Z,996.3
2018-01-06T06:30:03.509Z,996.3
2018-01-06T06:31:06.585Z,996.3
2018-01-06T06:32:09.079Z,996.4
2018-01-06T06:33:11.571Z,996.4
2018-01-06T06:34:14.060Z,996.3
2018-01-06T06:35:16.567Z,996.3
2018-01-06T06:36:19.058Z,996.3
2018-01-06T06:37:21.536Z,996.3
2018-01-06T06:38:24.027Z,996.3
2018-01-06T06:39:26.518Z,996.4
2018-01-06T06:40:29.019Z,996.5
2018-01-06T06:41:31.508Z,996.4
2018-01-06T06:42:34.057Z,996.4
2018-01-06T06:43:36.549Z,996.5
2018-01-06T06:44:39.343Z,996.5
2018-01-06T06:45:42.118Z,996.5
2018-01-06T06:46:44.606Z,996.4
2018-01-06T06:47:47.094Z,996.5
2018-01-06T06:48:49.588Z,996.5
2018-01-06T06:49:52.066Z,996.5
2018-01-06T06:50:54.556Z,996.5
2018-01-06T06:51:57.060Z,996.6
2018-01-06T06:52:59.544Z,996.5
2018-01-06T06:54:02.037Z,996.6
2018-01-06T06:55:04.540Z,996.6
2018-01-06T06:56:07.034Z,996.6
2018-01-06T06:57:09.539Z,996.6
2018-01-06T06:58:12.037Z,996.6
2018-01-06T06:59:14.510Z,996.6
2018-01-06T07:00:17.015Z,996.6
2018-01-06T07:01:19.505Z,996.7
2018-01-06T07:02:21.991Z,996.7
2018-01-06T07:03:24.779Z,996.7
2018-01-06T07:04:27.562Z,996.7
2018-01-06T07:05:30.057Z,996.7
2018-01-06T07:06:32.546Z,996.8
2018-01-06T07:07:35.327Z,996.8
2018-01-06T07:08:37.812Z,996.8
2018-01-06T07:09:40.316Z,996.8
2018-01-06T07:10:42.797Z,996.9
2018-01-06T07:11:45.299Z,996.9
2018-01-06T07:12:48.090Z,996.8
2018-01-06T07:13:50.579Z,996.8
2018-01-06T07:14:53.068Z,996.9
2018-01-06T07:15:55.574Z,996.9
2018-01-06T07:16:58.069Z,996.9
2018-01-06T07:18:00.554Z,996.9
2018-01-06T07:19:03.047Z,996.9
2018-01-06T07:20:05.542Z,996.9
2018-01-06T07:21:08.040Z,996.9
2018-01-06T07:22:10.542Z,996.9
2018-01-06T07:23:13.017Z,996.9
2018-01-06T07:24:15.515Z,997
2018-01-06T07:25:18.311Z,997
2018-01-06T07:26:20.797Z,997
2018-01-06T07:27:23.292Z,997.1
2018-01-06T07:28:25.788Z,997.1
2018-01-06T07:29:28.282Z,997.1
2018-01-06T07:30:30.776Z,997.1
2018-01-06T07:31:33.274Z,997
2018-01-06T07:32:35.756Z,997.1
2018-01-06T07:33:38.246Z,997.1
2018-01-06T07:34:40.761Z,997.1
2018-01-06T07:35:43.544Z,997.1
2018-01-06T07:36:46.331Z,997.1
2018-01-06T07:37:48.818Z,997.1
2018-01-06T07:38:51.315Z,997.1
2018-01-06T07:39:54.101Z,997.1
2018-01-06T07:40:56.596Z,997.1
2018-01-06T07:41:59.081Z,997.1
2018-01-06T07:43:01.575Z,997.1
2018-01-06T07:44:04.065Z,997.1
2018-01-06T07:45:06.556Z,997.1
2018-01-06T07:46:09.057Z,997
2018-01-06T07:47:11.549Z,997.1
2018-01-06T07:48:14.034Z,997.1
2018-01-06T07:49:16.533Z,997.2
2018-01-06T07:50:19.022Z,997.1
2018-01-06T07:51:21.518Z,997.1
2018-01-06T07:52:24.018Z,997.1
2018-01-06T07:53:26.506Z,997.2
2018-01-06T07:54:28.999Z,997.2
2018-01-06T07:55:31.498Z,997.2
2018-01-06T07:56:33.992Z,997.3
2018-01-06T07:57:36.500Z,997.3
2018-01-06T07:58:38.989Z,997.4
2018-01-06T07:59:41.502Z,997.4
2018-01-06T08:00:43.983Z,997.4
2018-01-06T08:01:46.483Z,997.4
2018-01-06T08:02:48.976Z,997.4
2018-01-06T08:03:51.476Z,997.4
2018-01-06T08:04:53.969Z,997.5
2018-01-06T08:05:56.771Z,997.5
2018-01-06T08:06:59.246Z,997.6
2018-01-06T08:08:01.755Z,997.5
2018-01-06T08:09:04.534Z,997.6
2018-01-06T08:10:07.022Z,997.5
2018-01-06T08:11:09.519Z,997.6
2018-01-06T08:12:12.010Z,997.6
2018-01-06T08:13:14.507Z,997.6
2018-01-06T08:14:17.004Z,997.6
2018-01-06T08:15:19.786Z,997.6
2018-01-06T08:16:22.282Z,997.6
2018-01-06T08:17:24.778Z,997.7
2018-01-06T08:18:27.279Z,997.7
2018-01-06T08:19:29.774Z,997.7
2018-01-06T08:20:32.274Z,997.8
2018-01-06T08:21:34.777Z,997.9
2018-01-06T08:22:37.270Z,997.9
2018-01-06T08:23:39.764Z,997.9
2018-01-06T08:24:42.538Z,997.9
2018-01-06T08:25:45.046Z,997.9
2018-01-06T08:26:47.837Z,997.9
2018-01-06T08:27:50.331Z,998
2018-01-06T08:28:53.118Z,998.1
2018-01-06T08:29:55.903Z,998.1
2018-01-06T08:30:59.245Z,998.1
2018-01-06T08:32:01.744Z,998.1
2018-01-06T08:33:04.245Z,998.1
2018-01-06T08:34:06.731Z,998.1
2018-01-06T08:35:09.228Z,998.1
2018-01-06T08:36:11.728Z,998.1
2018-01-06T08:37:14.794Z,998.1
2018-01-06T08:38:17.579Z,998.1
2018-01-06T08:39:20.101Z,998.1
2018-01-06T08:40:22.622Z,998.2
2018-01-06T08:41:25.141Z,998.2
2018-01-06T08:42:27.635Z,998.2
2018-01-06T08:43:30.121Z,998.2
2018-01-06T08:44:32.620Z,998.3
2018-01-06T08:45:35.119Z,998.2
2018-01-06T08:46:37.615Z,998.2
2018-01-06T08:47:40.105Z,998.3
2018-01-06T08:48:42.614Z,998.4
2018-01-06T08:49:45.110Z,998.3
2018-01-06T08:50:47.616Z,998.4
2018-01-06T08:51:50.104Z,998.3
2018-01-06T08:52:52.586Z,998.4
2018-01-06T08:53:55.090Z,998.4
2018-01-06T08:54:57.876Z,998.3
2018-01-06T08:56:00.654Z,998.4
2018-01-06T08:57:03.149Z,998.4
2018-01-06T08:58:05.653Z,998.4
2018-01-06T08:59:08.430Z,998.5
2018-01-06T09:00:10.933Z,998.5
2018-01-06T09:01:13.422Z,998.5
2018-01-06T09:02:16.211Z,998.5
2018-01-06T09:03:18.712Z,998.5
2018-01-06T09:04:21.496Z,998.5
2018-01-06T09:05:25.230Z,998.5
2018-01-06T09:06:30.604Z,998.5
2018-01-06T09:07:33.079Z,998.6
2018-01-06T09:08:35.874Z,998.6
2018-01-06T09:09:38.365Z,998.7
2018-01-06T09:10:40.870Z,998.6
2018-01-06T09:11:43.662Z,998.6
2018-01-06T09:12:46.455Z,998.7
2018-01-06T09:13:48.957Z,998.6
2018-01-06T09:14:51.784Z,998.7
2018-01-06T09:15:54.283Z,998.7
2018-01-06T09:16:56.772Z,998.6
2018-01-06T09:17:59.332Z,998.8
2018-01-06T09:19:01.818Z,998.7
2018-01-06T09:20:04.336Z,998.7
2018-01-06T09:21:06.812Z,998.7
2018-01-06T09:22:09.319Z,998.7
2018-01-06T09:23:11.808Z,998.7
2018-01-06T09:24:14.306Z,998.7
2018-01-06T09:25:16.800Z,998.7
2018-01-06T09:26:19.303Z,998.7
2018-01-06T09:27:21.782Z,998.8
2018-01-06T09:28:24.290Z,998.8
2018-01-06T09:29:26.782Z,998.7
2018-01-06T09:30:29.566Z,998.8
2018-01-06T09:31:32.076Z,998.8
2018-01-06T09:32:34.564Z,998.7
2018-01-06T09:33:37.344Z,998.7
2018-01-06T09:34:39.836Z,998.7
2018-01-06T09:35:42.337Z,998.7
2018-01-06T09:36:44.831Z,998.7
2018-01-06T09:37:47.343Z,998.7
2018-01-06T09:38:49.819Z,998.7
2018-01-06T09:39:52.325Z,998.7
2018-01-06T09:40:54.818Z,998.8
2018-01-06T09:41:57.616Z,998.8
2018-01-06T09:43:00.115Z,998.8
2018-01-06T09:44:02.615Z,998.9
2018-01-06T09:45:05.116Z,998.8
2018-01-06T09:46:07.606Z,998.8
2018-01-06T09:47:10.209Z,998.8
2018-01-06T09:48:12.877Z,998.9
2018-01-06T09:49:15.672Z,998.8
2018-01-06T09:50:18.439Z,998.9
2018-01-06T09:51:20.931Z,998.9
2018-01-06T09:52:23.431Z,999
2018-01-06T09:53:25.970Z,998.9
2018-01-06T09:54:28.599Z,998.9
2018-01-06T09:55:31.148Z,998.9
2018-01-06T09:56:33.950Z,998.9
2018-01-06T09:57:36.815Z,998.9
2018-01-06T09:58:39.338Z,999
2018-01-06T09:59:41.840Z,999
2018-01-06T10:00:44.335Z,999.1
2018-01-06T10:01:46.853Z,999.1
2018-01-06T10:02:49.354Z,999.1
2018-01-06T10:03:51.934Z,999.1
2018-01-06T10:04:54.474Z,999.1
2018-01-06T10:05:56.997Z,999.1
2018-01-06T10:06:59.504Z,999.1
2018-01-06T10:08:02.069Z,999.2
2018-01-06T10:09:04.590Z,999.2
2018-01-06T10:10:07.132Z,999.2
2018-01-06T10:11:09.627Z,999.2
2018-01-06T10:12:12.414Z,999.3
2018-01-06T10:13:14.919Z,999.2
2018-01-06T10:14:17.397Z,999.3
2018-01-06T10:15:19.900Z,999.3
2018-01-06T10:16:22.392Z,999.3
2018-01-06T10:17:25.224Z,999.3
2018-01-06T10:18:27.738Z,999.3
2018-01-06T10:19:30.247Z,999.3
2018-01-06T10:20:32.985Z,999.3
2018-01-06T10:21:35.530Z,999.4
2018-01-06T10:22:38.333Z,999.4
2018-01-06T10:23:41.111Z,999.4
2018-01-06T10:24:43.620Z,999.4
2018-01-06T10:25:46.112Z,999.4
2018-01-06T10:26:48.606Z,999.4
2018-01-06T10:27:51.128Z,999.5
2018-01-06T10:28:53.620Z,999.5
2018-01-06T10:29:56.179Z,999.5
2018-01-06T10:30:58.685Z,999.5
2018-01-06T10:32:01.262Z,999.4
2018-01-06T10:33:03.945Z,999.4
2018-01-06T10:34:06.724Z,999.4
2018-01-06T10:35:09.834Z,999.4
2018-01-06T10:36:12.366Z,999.4
2018-01-06T10:37:15.161Z,999.4
2018-01-06T10:38:17.654Z,999.4
2018-01-06T10:39:20.458Z,999.4
2018-01-06T10:40:22.948Z,999.4
2018-01-06T10:41:25.438Z,999.4
2018-01-06T10:42:27.937Z,999.5
2018-01-06T10:43:30.433Z,999.5
2018-01-06T10:44:32.933Z,999.5
2018-01-06T10:45:35.409Z,999.5
2018-01-06T10:46:38.508Z,999.6
2018-01-06T10:47:41.589Z,999.6
2018-01-06T10:48:44.369Z,999.6
2018-01-06T10:49:47.159Z,999.5
2018-01-06T10:50:49.648Z,999.5
2018-01-06T10:51:52.144Z,999.5
2018-01-06T10:52:54.941Z,999.5
2018-01-06T10:53:57.726Z,999.5
2018-01-06T10:55:00.511Z,999.5
2018-01-06T10:56:03.015Z,999.5
2018-01-06T10:57:05.801Z,999.5
2018-01-06T10:58:08.296Z,999.5
2018-01-06T10:59:10.791Z,999.6
2018-01-06T11:00:13.274Z,999.6
2018-01-06T11:01:16.055Z,999.6
2018-01-06T11:02:18.854Z,999.6
2018-01-06T11:03:21.343Z,999.6
2018-01-06T11:04:23.838Z,999.5
2018-01-06T11:05:26.624Z,999.5
2018-01-06T11:06:29.151Z,999.6
2018-01-06T11:07:31.650Z,999.6
2018-01-06T11:08:34.152Z,999.6
2018-01-06T11:09:36.627Z,999.6
2018-01-06T11:10:39.130Z,999.6
2018-01-06T11:11:41.629Z,999.5
2018-01-06T11:12:44.120Z,999.5
2018-01-06T11:13:46.621Z,999.5
2018-01-06T11:14:49.112Z,999.6
2018-01-06T11:15:51.610Z,999.6
2018-01-06T11:16:54.104Z,999.7
2018-01-06T11:17:56.597Z,999.6
2018-01-06T11:18:59.113Z,999.7
2018-01-06T11:20:01.884Z,999.7
2018-01-06T11:21:04.673Z,999.7
2018-01-06T11:22:07.161Z,999.7
2018-01-06T11:23:09.961Z,999.7
2018-01-06T11:24:12.446Z,999.8
2018-01-06T11:25:14.942Z,999.8
2018-01-06T11:26:17.427Z,999.7
2018-01-06T11:27:19.925Z,999.7
2018-01-06T11:28:22.427Z,999.8
2018-01-06T11:29:24.922Z,999.7
2018-01-06T11:30:27.430Z,999.7
2018-01-06T11:31:29.925Z,999.7
2018-01-06T11:32:32.417Z,999.8
2018-01-06T11:33:34.927Z,999.8
2018-01-06T11:34:37.417Z,999.8
2018-01-06T11:35:39.916Z,999.8
2018-01-06T11:36:42.408Z,999.8
2018-01-06T11:37:44.892Z,999.8
2018-01-06T11:38:47.390Z,999.9
2018-01-06T11:39:49.888Z,999.8
2018-01-06T11:40:52.370Z,999.8
2018-01-06T11:41:54.876Z,999.8
2018-01-06T11:42:57.375Z,999.8
2018-01-06T11:44:00.158Z,999.8
2018-01-06T11:45:02.652Z,999.9
2018-01-06T11:46:05.140Z,999.9
2018-01-06T11:47:07.640Z,999.9
2018-01-06T11:48:10.138Z,999.9
2018-01-06T11:49:12.637Z,999.9
2018-01-06T11:50:15.132Z,999.9
2018-01-06T11:51:17.636Z,999.9
2018-01-06T11:52:20.417Z,1000
2018-01-06T11:53:22.922Z,1000
2018-01-06T11:54:25.406Z,1000
2018-01-06T11:55:27.904Z,1000.1
2018-01-06T11:56:30.396Z,1000.1
2018-01-06T11:57:32.900Z,1000.2
2018-01-06T11:58:35.388Z,1000.2
2018-01-06T11:59:38.172Z,1000.2
2018-01-06T12:00:40.665Z,1000.2
2018-01-06T12:01:43.170Z,1000.2
2018-01-06T12:02:45.664Z,1000.2
2018-01-06T12:03:48.156Z,1000.2
2018-01-06T12:04:50.651Z,1000.2
2018-01-06T12:05:53.150Z,1000.2
2018-01-06T12:06:55.656Z,1000.2
2018-01-06T12:07:58.448Z,1000.2
2018-01-06T12:09:00.930Z,1000.2
2018-01-06T12:10:03.430Z,1000.2
2018-01-06T12:11:05.923Z,1000.3
2018-01-06T12:12:08.418Z,1000.2
2018-01-06T12:13:11.205Z,1000.2
2018-01-06T12:14:13.694Z,1000.2
2018-01-06T12:15:16.184Z,1000.3
2018-01-06T12:16:18.689Z,1000.2
2018-01-06T12:17:21.172Z,1000.3
2018-01-06T12:18:23.962Z,1000.3
2018-01-06T12:19:26.468Z,1000.3
2018-01-06T12:20:29.245Z,1000.4
2018-01-06T12:21:32.032Z,1000.3
2018-01-06T12:22:34.527Z,1000.3
2018-01-06T12:23:37.019Z,1000.3
2018-01-06T12:24:39.514Z,1000.3
2018-01-06T12:26:14.410Z,1000.4
2018-01-06T12:27:16.912Z,1000.4
2018-01-06T12:28:19.408Z,1000.4
2018-01-06T12:29:21.907Z,1000.3
2018-01-06T12:30:24.400Z,1000.4
2018-01-06T12:31:26.904Z,1000.4
2018-01-06T12:32:29.676Z,1000.4
2018-01-06T12:33:32.192Z,1000.4
2018-01-06T12:34:34.674Z,1000.4
2018-01-06T12:35:37.178Z,1000.5
2018-01-06T12:36:39.684Z,1000.5
2018-01-06T12:37:42.178Z,1000.5
2018-01-06T12:38:44.674Z,1000.5
2018-01-06T12:39:47.173Z,1000.5
2018-01-06T12:40:49.656Z,1000.5
2018-01-06T12:41:52.150Z,1000.5
2018-01-06T12:42:54.659Z,1000.5
2018-01-06T12:43:57.160Z,1000.5
2018-01-06T12:44:59.646Z,1000.5
2018-01-06T12:46:02.147Z,1000.6
2018-01-06T12:47:04.652Z,1000.5
2018-01-06T12:48:07.142Z,1000.6
2018-01-06T12:49:09.641Z,1000.6
2018-01-06T12:50:12.128Z,1000.6
2018-01-06T12:51:14.620Z,1000.6
2018-01-06T12:52:17.139Z,1000.6
2018-01-06T12:53:19.628Z,1000.6
2018-01-06T12:54:22.122Z,1000.7
2018-01-06T12:55:24.662Z,1000.7
2018-01-06T12:56:27.161Z,1000.7
2018-01-06T12:57:29.672Z,1000.7
2018-01-06T12:58:32.172Z,1000.8
2018-01-06T12:59:34.653Z,1000.8
2018-01-06T13:00:37.449Z,1000.8
2018-01-06T13:01:39.940Z,1000.8
2018-01-06T13:02:42.437Z,1000.8
2018-01-06T13:03:45.023Z,1000.8
2018-01-06T13:04:48.076Z,1000.8
2018-01-06T13:05:51.249Z,1000.9
2018-01-06T13:06:53.763Z,1000.9
2018-01-06T13:07:56.261Z,1001
2018-01-06T13:08:58.758Z,1001.1
2018-01-06T13:10:01.258Z,1001
2018-01-06T13:11:03.762Z,1001
2018-01-06T13:12:06.260Z,1001.1
2018-01-06T13:13:09.066Z,1001.1
2018-01-06T13:14:11.613Z,1001.1
2018-01-06T13:15:14.197Z,1001.2
2018-01-06T13:16:16.683Z,1001.1
2018-01-06T13:17:19.175Z,1001.2
2018-01-06T13:18:21.975Z,1001.2
2018-01-06T13:19:24.469Z,1001.3
2018-01-06T13:20:26.972Z,1001.3
2018-01-06T13:21:29.753Z,1001.3
2018-01-06T13:22:32.534Z,1001.3
2018-01-06T13:23:35.333Z,1001.3
2018-01-06T13:24:37.836Z,1001.3
2018-01-06T13:25:40.315Z,1001.3